Airport ID:KSMD
Update Time (UTC):01/03/2021 07:33
Wind Speed (Knots):7
Wind Direction (Magnetic):290
Temperature (°C):2.9
Dew Point (°C):-1.1
Humidity (%):76.3
Altimeter (inHg):29.93
Density Altitude (Feet):
Visibility (Miles):10
Clouds (Hundreds of feet):OVC023
Present Weather:
METAR:METAR KSMD 010730Z AUTO 30009G19KT 10SM OVC023 03/M01 A2993 RMK A01

The data displayed is for advisory purposes only and is not to be used for flight planning or operations.